Time;durP1;ratioP1;P1;durP2;ratioP2;P2;SDS_P1;SDS_P2;PMS_P1;PMS_P2;Temp;Humidity;BMP_temperature;BMP_pressure;BME280_temperature;BME280_humidity;BME280_pressure;Samples;Min_cycle;Max_cycle;Signal;HPM_P1;HPM_P2
2023/11/23 00:01:47;;;;;;;21.98;15.05;;;8.20;99.90;;;;;;5082158;28;20208;-37
2023/11/23 00:04:13;;;;;;;20.40;13.48;;;8.20;99.90;;;;;;5075196;28;20064;-36
2023/11/23 00:06:38;;;;;;;21.40;15.00;;;8.30;99.90;;;;;;5078906;28;20812;-38
2023/11/23 00:09:06;;;;;;;22.40;15.15;;;8.20;99.90;;;;;;5078531;28;20032;-37
2023/11/23 00:11:32;;;;;;;22.85;13.68;;;8.30;99.90;;;;;;5076820;28;20387;-35
2023/11/23 00:13:58;;;;;;;19.33;13.85;;;8.30;99.90;;;;;;5079800;28;20546;-37
2023/11/23 00:16:23;;;;;;;19.80;14.30;;;8.30;99.90;;;;;;5074343;28;20031;-37
2023/11/23 00:18:49;;;;;;;19.65;14.57;;;8.30;99.90;;;;;;5081116;28;20036;-37
2023/11/23 00:21:14;;;;;;;19.40;13.63;;;8.30;99.90;;;;;;5071976;28;20033;-37
2023/11/23 00:23:41;;;;;;;21.88;15.13;;;8.30;99.90;;;;;;5081637;28;20028;-37
2023/11/23 00:26:06;;;;;;;20.73;13.57;;;8.40;99.90;;;;;;5071315;28;20097;-37
2023/11/23 00:28:32;;;;;;;17.58;13.13;;;8.40;99.90;;;;;;5083813;28;20430;-38
2023/11/23 00:30:58;;;;;;;19.48;13.95;;;8.40;99.90;;;;;;5078176;28;20074;-37
2023/11/23 00:33:24;;;;;;;18.63;13.55;;;8.40;99.90;;;;;;5062423;28;20045;-37
2023/11/23 00:35:49;;;;;;;22.42;13.85;;;8.40;99.90;;;;;;5075041;28;20017;-37
2023/11/23 00:38:21;;;;;;;21.17;14.70;;;8.40;99.90;;;;;;5063776;28;20078;-37
2023/11/23 00:40:46;;;;;;;20.15;14.80;;;8.40;99.90;;;;;;5073175;28;20564;-38
2023/11/23 00:43:12;;;;;;;19.45;13.32;;;8.40;99.90;;;;;;5063122;28;20037;-36
2023/11/23 00:45:37;;;;;;;21.00;13.55;;;8.40;99.90;;;;;;5070962;28;20074;-36
2023/11/23 00:48:03;;;;;;;17.45;12.98;;;8.50;99.90;;;;;;5065216;28;20128;-37
2023/11/23 00:50:29;;;;;;;16.98;12.07;;;8.40;99.90;;;;;;5068909;28;20483;-37
2023/11/23 00:52:55;;;;;;;18.48;12.68;;;8.50;99.90;;;;;;5081655;28;20036;-37
2023/11/23 00:55:20;;;;;;;18.05;13.07;;;8.50;99.90;;;;;;5082192;28;20790;-37
2023/11/23 00:57:46;;;;;;;17.65;12.95;;;8.50;99.90;;;;;;5082735;28;20032;-37
2023/11/23 01:00:16;;;;;;;19.55;12.80;;;8.50;99.90;;;;;;5082289;28;20503;-36
2023/11/23 01:02:43;;;;;;;20.65;15.00;;;8.60;99.90;;;;;;5070747;28;20057;-37
2023/11/23 01:05:11;;;;;;;19.02;13.88;;;8.60;99.90;;;;;;5082353;28;20069;-37
2023/11/23 01:07:38;;;;;;;21.08;15.43;;;8.60;99.90;;;;;;5082225;28;20044;-37
2023/11/23 01:10:05;;;;;;;21.92;15.90;;;8.60;99.90;;;;;;5082409;28;20032;-38
2023/11/23 01:12:31;;;;;;;23.42;15.43;;;8.60;99.90;;;;;;5082289;28;20023;-36
2023/11/23 01:14:57;;;;;;;22.83;15.73;;;8.60;99.90;;;;;;5081484;28;20032;-37
2023/11/23 01:17:22;;;;;;;20.83;14.02;;;8.70;99.90;;;;;;5082531;28;20092;-37
2023/11/23 01:19:48;;;;;;;18.63;14.00;;;8.70;99.90;;;;;;5082201;28;20031;-37
2023/11/23 01:22:14;;;;;;;19.48;13.63;;;8.70;99.90;;;;;;5080610;28;20367;-37
2023/11/23 01:24:43;;;;;;;18.98;12.80;;;8.70;99.90;;;;;;5082170;28;20027;-37
2023/11/23 01:27:08;;;;;;;16.17;12.50;;;8.80;99.90;;;;;;5081161;28;20032;-37
2023/11/23 01:29:34;;;;;;;17.13;12.35;;;8.80;99.90;;;;;;5081726;28;20735;-37
2023/11/23 01:32:03;;;;;;;17.40;12.30;;;8.80;99.90;;;;;;5080878;28;20503;-37
2023/11/23 01:34:29;;;;;;;17.90;13.73;;;8.90;99.90;;;;;;5081336;28;20044;-36
2023/11/23 01:36:55;;;;;;;15.15;11.57;;;8.90;99.90;;;;;;5080370;28;20020;-37
2023/11/23 01:39:20;;;;;;;17.42;13.00;;;8.90;99.90;;;;;;5081576;28;20028;-39
2023/11/23 01:41:46;;;;;;;15.10;12.25;;;9.00;99.90;;;;;;5081578;28;20028;-37
2023/11/23 01:44:11;;;;;;;18.10;13.10;;;9.00;99.90;;;;;;5081047;28;20062;-37
2023/11/23 01:46:40;;;;;;;16.15;12.82;;;9.00;99.90;;;;;;5082162;28;20036;-37
2023/11/23 01:49:06;;;;;;;18.23;12.95;;;9.00;99.90;;;;;;5081759;28;20074;-37
2023/11/23 01:51:32;;;;;;;16.05;12.40;;;9.10;99.90;;;;;;5081139;28;20056;-37
2023/11/23 01:53:58;;;;;;;15.55;12.52;;;9.10;99.90;;;;;;5080586;28;20596;-36
2023/11/23 01:56:25;;;;;;;16.00;12.65;;;9.10;99.90;;;;;;5081653;28;20114;-36
2023/11/23 01:58:52;;;;;;;19.10;13.98;;;9.20;99.90;;;;;;5080016;28;20034;-44
2023/11/23 02:01:21;;;;;;;16.63;12.15;;;9.20;99.90;;;;;;5080922;28;20542;-37
2023/11/23 02:03:48;;;;;;;15.45;12.13;;;9.20;99.90;;;;;;5081074;28;20379;-36
2023/11/23 02:06:13;;;;;;;15.50;11.75;;;9.20;99.90;;;;;;5080676;28;20052;-36
2023/11/23 02:08:39;;;;;;;14.15;11.27;;;9.20;99.90;;;;;;5081474;28;20061;-36
2023/11/23 02:11:06;;;;;;;17.35;13.80;;;9.30;99.90;;;;;;5080828;28;20027;-36
2023/11/23 02:13:33;;;;;;;16.75;13.10;;;9.30;99.90;;;;;;5080987;28;20035;-36
2023/11/23 02:15:59;;;;;;;18.65;14.70;;;9.30;99.90;;;;;;5080626;28;20069;-36
2023/11/23 02:18:25;;;;;;;16.95;12.75;;;9.40;99.90;;;;;;5080212;28;20792;-38
2023/11/23 02:20:51;;;;;;;13.85;11.38;;;9.40;99.90;;;;;;5079511;28;20035;-36
2023/11/23 02:23:16;;;;;;;15.98;12.25;;;9.40;99.90;;;;;;5080895;28;20452;-37
2023/11/23 02:25:42;;;;;;;14.70;11.52;;;9.40;99.90;;;;;;5080535;28;20032;-37
2023/11/23 02:28:11;;;;;;;15.43;12.15;;;9.40;99.90;;;;;;5080948;28;20449;-36
2023/11/23 02:30:36;;;;;;;16.10;11.88;;;9.50;99.90;;;;;;5080682;28;20039;-37
2023/11/23 02:33:03;;;;;;;15.23;12.10;;;9.50;99.90;;;;;;5079307;28;20024;-36
2023/11/23 02:35:29;;;;;;;17.25;12.88;;;9.50;99.90;;;;;;5081385;28;20028;-37
2023/11/23 02:37:55;;;;;;;15.32;11.45;;;9.50;99.90;;;;;;5080684;28;20035;-37
2023/11/23 02:40:20;;;;;;;17.55;13.48;;;9.60;99.90;;;;;;5081074;28;20028;-35
2023/11/23 02:42:48;;;;;;;16.50;13.23;;;9.60;99.90;;;;;;5079092;28;20506;-35
2023/11/23 02:45:14;;;;;;;14.25;11.68;;;9.60;99.90;;;;;;5080419;28;20032;-36
2023/11/23 02:47:39;;;;;;;14.13;12.27;;;9.60;99.90;;;;;;5079978;28;20494;-36
2023/11/23 02:50:05;;;;;;;20.27;15.00;;;9.70;99.90;;;;;;5080932;28;20029;-36
2023/11/23 02:52:31;;;;;;;18.10;14.75;;;9.70;99.90;;;;;;5081486;28;20059;-36
2023/11/23 02:54:56;;;;;;;20.13;14.57;;;9.70;99.90;;;;;;5079273;28;20062;-36
2023/11/23 02:57:22;;;;;;;22.20;14.02;;;9.70;99.90;;;;;;5080494;28;20760;-36
2023/11/23 02:59:49;;;;;;;20.15;14.75;;;9.70;99.90;;;;;;5080478;28;20024;-36
2023/11/23 03:02:15;;;;;;;15.55;13.23;;;9.70;99.90;;;;;;5080681;28;20086;-36
2023/11/23 03:04:40;;;;;;;18.80;13.30;;;9.80;99.90;;;;;;5080998;28;20044;-39
2023/11/23 03:07:06;;;;;;;17.15;13.57;;;9.80;99.90;;;;;;5084211;28;20106;-37
2023/11/23 03:09:32;;;;;;;17.08;13.15;;;9.90;99.90;;;;;;5083496;28;20028;-37
2023/11/23 03:12:00;;;;;;;14.60;12.63;;;9.80;99.90;;;;;;5083985;28;20376;-36
2023/11/23 03:14:25;;;;;;;18.13;13.90;;;9.80;99.90;;;;;;5083855;28;20067;-36
2023/11/23 03:16:51;;;;;;;17.90;13.48;;;9.90;99.90;;;;;;5083873;28;20758;-38
2023/11/23 03:19:17;;;;;;;14.98;11.82;;;9.90;99.90;;;;;;5084853;28;20028;-41
2023/11/23 03:21:43;;;;;;;16.10;12.27;;;9.90;99.90;;;;;;5082932;28;20023;-36
2023/11/23 03:24:08;;;;;;;14.65;11.10;;;10.00;99.90;;;;;;5084271;28;20573;-42
2023/11/23 03:26:35;;;;;;;14.55;11.73;;;10.00;99.90;;;;;;5084473;28;20502;-36
2023/11/23 03:29:01;;;;;;;16.60;13.05;;;10.00;99.90;;;;;;5082817;28;20016;-36
2023/11/23 03:31:26;;;;;;;14.48;11.55;;;10.00;99.90;;;;;;5083731;28;20031;-36
2023/11/23 03:33:52;;;;;;;17.75;12.13;;;10.00;99.90;;;;;;5083175;28;20043;-36
2023/11/23 03:36:17;;;;;;;17.50;12.73;;;10.00;99.90;;;;;;5082654;28;20016;-36
2023/11/23 03:38:43;;;;;;;15.38;11.52;;;10.00;99.90;;;;;;5083811;28;20662;-36
2023/11/23 03:41:11;;;;;;;14.65;11.45;;;10.00;99.90;;;;;;5083619;28;20548;-37
2023/11/23 03:43:37;;;;;;;16.15;11.73;;;10.10;99.90;;;;;;5083480;28;20099;-37
2023/11/23 03:46:02;;;;;;;14.10;10.95;;;10.10;99.90;;;;;;5083346;28;20633;-38
2023/11/23 03:48:28;;;;;;;13.07;10.77;;;10.10;99.90;;;;;;5084515;28;20032;-36
2023/11/23 03:50:53;;;;;;;14.27;11.98;;;10.10;99.90;;;;;;5082030;28;20052;-37
2023/11/23 03:53:19;;;;;;;16.42;11.25;;;10.10;99.90;;;;;;5083442;28;20092;-36
2023/11/23 03:55:45;;;;;;;16.27;11.25;;;10.10;99.90;;;;;;5083956;28;20566;-36
2023/11/23 03:58:11;;;;;;;15.68;11.50;;;10.10;99.90;;;;;;5082104;28;20024;-37
2023/11/23 04:00:36;;;;;;;16.08;12.95;;;10.10;99.90;;;;;;5083597;28;20031;-36
2023/11/23 04:03:03;;;;;;;12.88;10.77;;;10.10;99.90;;;;;;5082704;28;20027;-37
2023/11/23 04:05:31;;;;;;;14.40;10.95;;;10.10;99.90;;;;;;5082415;28;20028;-36
2023/11/23 04:07:57;;;;;;;13.15;10.18;;;10.20;99.90;;;;;;5082384;28;20039;-36
2023/11/23 04:10:22;;;;;;;15.02;10.32;;;10.20;99.90;;;;;;5083579;28;20129;-36
2023/11/23 04:12:48;;;;;;;14.27;10.90;;;10.20;99.90;;;;;;5082422;28;20096;-37
2023/11/23 04:15:14;;;;;;;11.57;10.25;;;10.20;99.90;;;;;;5083265;28;20020;-36
2023/11/23 04:17:39;;;;;;;15.05;11.40;;;10.20;99.90;;;;;;5080775;28;20013;-37
2023/11/23 04:20:06;;;;;;;14.20;10.82;;;10.20;99.90;;;;;;5083161;28;20570;-37
2023/11/23 04:22:32;;;;;;;14.55;11.40;;;10.20;99.90;;;;;;5081927;28;20119;-36
2023/11/23 04:24:57;;;;;;;14.68;11.45;;;10.20;99.90;;;;;;5082302;28;20042;-36
2023/11/23 04:27:23;;;;;;;16.35;10.95;;;10.20;99.90;;;;;;5082650;28;20035;-36
2023/11/23 04:29:50;;;;;;;11.55;9.18;;;10.20;99.90;;;;;;5082728;28;20461;-37
2023/11/23 04:32:16;;;;;;;14.80;10.07;;;10.20;99.90;;;;;;5082550;28;20081;-37
2023/11/23 04:34:42;;;;;;;12.73;10.35;;;10.30;99.90;;;;;;5082013;28;20024;-36
2023/11/23 04:37:08;;;;;;;14.15;11.15;;;10.30;99.90;;;;;;5082927;28;20129;-38
2023/11/23 04:39:34;;;;;;;11.98;9.63;;;10.30;99.90;;;;;;5082751;28;20106;-36
2023/11/23 04:41:59;;;;;;;14.57;10.75;;;10.30;99.90;;;;;;5082746;28;20385;-37
2023/11/23 04:44:25;;;;;;;12.48;9.35;;;10.30;99.90;;;;;;5082281;28;20483;-36
2023/11/23 04:46:51;;;;;;;11.27;9.57;;;10.30;99.90;;;;;;5081298;28;20031;-36
2023/11/23 04:49:17;;;;;;;11.27;9.38;;;10.30;99.90;;;;;;5082351;28;20027;-38
2023/11/23 04:51:42;;;;;;;11.82;9.38;;;10.30;99.90;;;;;;5081949;28;20434;-38
2023/11/23 04:54:08;;;;;;;10.85;9.23;;;10.30;99.90;;;;;;5081401;28;20058;-36
2023/11/23 04:56:34;;;;;;;12.82;10.13;;;10.30;99.90;;;;;;5083122;28;20740;-37
2023/11/23 04:59:00;;;;;;;13.55;9.02;;;10.40;99.90;;;;;;5081815;28;20110;-37
2023/11/23 05:01:25;;;;;;;12.75;10.02;;;10.40;99.90;;;;;;5082554;28;20877;-37
2023/11/23 05:03:52;;;;;;;11.75;9.63;;;10.40;99.90;;;;;;5082185;28;20043;-37
2023/11/23 05:06:18;;;;;;;11.00;9.20;;;10.40;99.90;;;;;;5082971;28;20035;-37
2023/11/23 05:08:45;;;;;;;12.68;9.00;;;10.40;99.90;;;;;;5081777;28;20019;-37
2023/11/23 05:11:12;;;;;;;13.45;10.13;;;10.40;99.90;;;;;;5082185;28;20365;-38
2023/11/23 05:13:37;;;;;;;11.70;8.80;;;10.40;99.90;;;;;;5082436;28;20973;-37
2023/11/23 05:16:05;;;;;;;12.35;7.70;;;10.40;99.90;;;;;;5081276;28;20748;-37
2023/11/23 05:18:31;;;;;;;13.18;9.13;;;10.40;99.90;;;;;;5082395;28;20039;-37
2023/11/23 05:20:56;;;;;;;13.25;9.52;;;10.40;99.90;;;;;;5080830;28;20024;-36
2023/11/23 05:23:22;;;;;;;11.82;8.80;;;10.40;99.90;;;;;;5081509;28;20032;-37
2023/11/23 05:25:49;;;;;;;11.93;7.95;;;10.40;99.90;;;;;;5080957;28;20024;-37
2023/11/23 05:28:14;;;;;;;10.77;8.23;;;10.40;99.90;;;;;;5081068;28;20080;-37
2023/11/23 05:30:40;;;;;;;13.05;9.48;;;10.40;99.90;;;;;;5081937;28;20024;-38
2023/11/23 05:33:06;;;;;;;12.43;8.45;;;10.40;99.90;;;;;;5081958;28;20507;-37
2023/11/23 05:35:31;;;;;;;11.80;8.40;;;10.40;99.90;;;;;;5081377;28;20034;-37
2023/11/23 05:37:57;;;;;;;9.85;8.35;;;10.40;99.90;;;;;;5081317;28;20077;-37
2023/11/23 05:40:23;;;;;;;10.32;7.75;;;10.40;99.90;;;;;;5082031;28;20027;-37
2023/11/23 05:42:49;;;;;;;10.80;8.23;;;10.40;99.90;;;;;;5080910;28;20024;-37
2023/11/23 05:45:15;;;;;;;15.02;8.27;;;10.40;99.90;;;;;;5081853;28;20032;-38
2023/11/23 05:47:41;;;;;;;11.13;7.85;;;10.50;99.90;;;;;;5081276;28;20020;-37
2023/11/23 05:50:08;;;;;;;11.57;8.85;;;10.50;99.90;;;;;;5080364;28;20563;-37
2023/11/23 05:52:34;;;;;;;11.57;7.97;;;10.50;99.90;;;;;;5071836;28;20086;-38
2023/11/23 05:55:00;;;;;;;12.15;7.97;;;10.50;99.90;;;;;;5062408;28;20032;-37
2023/11/23 05:57:25;;;;;;;11.00;8.32;;;10.50;99.90;;;;;;5072015;28;20013;-37
2023/11/23 05:59:51;;;;;;;9.95;7.82;;;10.50;99.90;;;;;;5061951;28;20035;-36
2023/11/23 06:02:18;;;;;;;9.57;8.40;;;10.40;99.90;;;;;;5069355;28;20118;-38
2023/11/23 06:04:47;;;;;;;12.35;8.68;;;10.50;99.90;;;;;;5060790;28;20021;-38
2023/11/23 06:07:13;;;;;;;11.25;8.43;;;10.40;99.90;;;;;;5074218;28;20024;-36
2023/11/23 06:09:39;;;;;;;11.45;8.40;;;10.50;99.90;;;;;;5062276;28;20032;-37
2023/11/23 06:12:08;;;;;;;13.80;8.70;;;10.50;99.90;;;;;;5073164;28;20020;-37
2023/11/23 06:14:36;;;;;;;12.50;8.10;;;10.50;99.90;;;;;;5061730;28;20765;-37
2023/11/23 06:17:03;;;;;;;8.82;7.53;;;10.50;99.90;;;;;;5072239;28;20024;-37
2023/11/23 06:19:29;;;;;;;12.48;9.27;;;10.50;99.90;;;;;;5062086;28;20032;-37
2023/11/23 06:21:54;;;;;;;16.38;9.10;;;10.50;99.90;;;;;;5069154;28;20031;-37
2023/11/23 06:24:20;;;;;;;14.50;9.27;;;10.50;99.90;;;;;;5064132;28;20054;-37
2023/11/23 06:26:46;;;;;;;16.58;10.93;;;10.50;99.90;;;;;;5067745;28;20027;-43
2023/11/23 06:29:11;;;;;;;12.40;9.50;;;10.60;99.90;;;;;;5065818;28;20078;-35
2023/11/23 06:31:37;;;;;;;16.52;11.15;;;10.50;99.90;;;;;;5063197;28;20016;-41
2023/11/23 06:34:02;;;;;;;16.83;11.43;;;10.60;99.90;;;;;;5068470;28;20039;-36
2023/11/23 06:36:29;;;;;;;20.88;12.35;;;10.50;99.90;;;;;;5061195;28;20066;-36
2023/11/23 06:38:55;;;;;;;16.25;11.20;;;10.60;99.90;;;;;;5070651;28;20020;-37
2023/11/23 06:41:22;;;;;;;12.27;10.05;;;10.60;99.90;;;;;;5066549;28;20024;-36
2023/11/23 06:43:51;;;;;;;13.80;11.13;;;10.60;99.90;;;;;;5072803;28;20623;-37
2023/11/23 06:46:18;;;;;;;17.15;12.68;;;10.60;99.90;;;;;;5083545;28;20467;-37
2023/11/23 06:48:44;;;;;;;14.32;10.38;;;10.60;99.90;;;;;;5075830;28;20070;-38
2023/11/23 06:51:11;;;;;;;17.00;12.45;;;10.60;99.90;;;;;;5074148;28;20042;-45
2023/11/23 06:53:46;;;;;;;15.00;11.35;;;10.60;99.90;;;;;;5083212;28;20044;-41
2023/11/23 06:56:14;;;;;;;15.90;11.80;;;10.60;99.90;;;;;;5084599;28;20081;-37
2023/11/23 06:58:46;;;;;;;16.15;11.00;;;10.70;99.90;;;;;;5083852;28;20036;-36
2023/11/23 07:01:12;;;;;;;17.40;11.85;;;10.70;99.90;;;;;;5083665;28;20016;-37
2023/11/23 07:03:38;;;;;;;17.02;11.52;;;10.70;99.90;;;;;;5084096;28;20582;-37
2023/11/23 07:06:05;;;;;;;13.38;9.82;;;10.70;99.90;;;;;;5083801;28;20422;-37
2023/11/23 07:08:33;;;;;;;17.02;11.25;;;10.70;99.90;;;;;;5082731;28;20028;-38
2023/11/23 07:11:00;;;;;;;16.20;10.55;;;10.70;99.90;;;;;;5083806;28;20028;-37
2023/11/23 07:13:26;;;;;;;13.98;10.02;;;10.70;99.90;;;;;;5083439;28;20043;-37
2023/11/23 07:15:52;;;;;;;15.25;10.23;;;10.70;99.90;;;;;;5082821;28;20133;-37
2023/11/23 07:18:18;;;;;;;15.82;9.75;;;10.70;99.90;;;;;;5083805;28;20444;-36
2023/11/23 07:20:43;;;;;;;17.42;11.50;;;10.70;99.90;;;;;;5082146;28;20024;-36
2023/11/23 07:23:10;;;;;;;15.77;10.60;;;10.70;99.90;;;;;;5083068;28;20024;-36
2023/11/23 07:25:43;;;;;;;12.30;10.07;;;10.70;99.90;;;;;;5082707;28;20123;-36
2023/11/23 07:28:11;;;;;;;13.43;10.35;;;10.70;99.90;;;;;;5082606;28;20857;-37
2023/11/23 07:30:38;;;;;;;14.25;10.20;;;10.70;99.90;;;;;;5082813;28;20032;-37
2023/11/23 07:33:07;;;;;;;13.18;9.63;;;10.80;99.90;;;;;;5083356;28;20036;-37
2023/11/23 07:35:34;;;;;;;14.15;9.48;;;10.70;99.90;;;;;;5082891;28;20027;-37
2023/11/23 07:38:02;;;;;;;14.68;9.70;;;10.70;99.90;;;;;;5082690;28;20020;-37
2023/11/23 07:40:28;;;;;;;14.88;10.68;;;10.70;99.90;;;;;;5083385;28;20035;-37
2023/11/23 07:42:54;;;;;;;13.52;10.10;;;10.70;99.90;;;;;;5082457;28;20024;-39
2023/11/23 07:45:20;;;;;;;16.25;10.23;;;10.80;99.90;;;;;;5083830;28;20031;-37
2023/11/23 07:47:46;;;;;;;12.30;10.15;;;10.70;99.90;;;;;;5084282;28;20468;-36
2023/11/23 07:50:15;;;;;;;14.20;9.05;;;10.70;99.90;;;;;;5082510;28;20064;-37
2023/11/23 07:52:45;;;;;;;15.27;10.05;;;10.70;99.90;;;;;;5063423;28;20048;-37
2023/11/23 07:55:15;;;;;;;13.75;9.88;;;10.80;99.90;;;;;;5072716;28;20032;-38
2023/11/23 07:57:51;;;;;;;16.02;9.88;;;10.80;99.90;;;;;;5064147;28;20125;-37
2023/11/23 08:00:19;;;;;;;14.30;9.93;;;10.80;99.90;;;;;;5068572;28;20052;-38
2023/11/23 08:02:45;;;;;;;14.10;9.23;;;10.80;99.90;;;;;;5080484;28;20032;-37
2023/11/23 08:05:11;;;;;;;14.25;9.23;;;10.90;99.90;;;;;;5075722;28;20357;-37
2023/11/23 08:07:36;;;;;;;11.38;8.38;;;10.90;99.90;;;;;;5078674;28;20352;-38
2023/11/23 08:10:06;;;;;;;17.08;10.27;;;10.90;99.90;;;;;;5077773;28;20127;-37
2023/11/23 08:12:32;;;;;;;13.48;9.65;;;10.90;99.90;;;;;;5076685;28;20027;-37
2023/11/23 08:15:00;;;;;;;13.80;9.27;;;10.90;99.90;;;;;;5081699;28;20040;-36
2023/11/23 08:17:29;;;;;;;13.15;9.77;;;11.00;99.90;;;;;;5072670;28;20080;-36
2023/11/23 08:19:54;;;;;;;13.63;9.68;;;11.00;99.90;;;;;;5067761;28;20539;-37
2023/11/23 08:22:21;;;;;;;12.18;8.77;;;10.90;99.90;;;;;;5072126;28;20153;-38
2023/11/23 08:24:47;;;;;;;11.90;9.07;;;11.00;99.90;;;;;;5080618;28;20852;-38
2023/11/23 08:27:13;;;;;;;12.07;9.10;;;11.00;99.90;;;;;;5072158;28;20035;-37
2023/11/23 08:29:38;;;;;;;12.95;8.20;;;11.00;99.90;;;;;;5082764;28;20045;-38
2023/11/23 08:32:05;;;;;;;12.45;8.32;;;11.00;99.90;;;;;;5069352;28;20024;-37
2023/11/23 08:34:31;;;;;;;10.23;8.10;;;11.00;99.90;;;;;;5082720;28;20510;-36
2023/11/23 08:36:57;;;;;;;13.55;9.07;;;11.00;99.90;;;;;;5068780;28;20032;-37
2023/11/23 08:39:23;;;;;;;15.50;9.80;;;11.00;99.90;;;;;;5082148;28;20060;-36
2023/11/23 08:41:49;;;;;;;13.95;9.52;;;11.10;99.90;;;;;;5071124;28;20112;-37
2023/11/23 08:44:14;;;;;;;15.40;9.25;;;11.10;99.90;;;;;;5080952;28;20077;-37
2023/11/23 08:46:41;;;;;;;12.55;9.55;;;11.00;99.90;;;;;;5073274;28;20027;-38
2023/11/23 08:49:08;;;;;;;15.13;9.98;;;11.10;99.90;;;;;;5078075;28;20502;-37
2023/11/23 08:51:34;;;;;;;12.10;8.30;;;11.10;99.90;;;;;;5076208;28;20070;-38
2023/11/23 08:53:59;;;;;;;11.90;8.38;;;11.10;99.90;;;;;;5074624;28;20483;-36
2023/11/23 08:56:25;;;;;;;16.25;10.30;;;11.10;99.90;;;;;;5079611;28;20107;-37
2023/11/23 08:58:51;;;;;;;13.70;9.65;;;11.10;99.90;;;;;;5072592;28;20024;-37
2023/11/23 09:01:16;;;;;;;14.70;9.60;;;11.10;99.90;;;;;;5081055;28;20024;-38
2023/11/23 09:03:42;;;;;;;17.73;10.30;;;11.20;99.90;;;;;;5070598;28;20051;-38
2023/11/23 09:06:08;;;;;;;12.02;9.05;;;11.20;99.90;;;;;;5079828;28;20024;-36
2023/11/23 09:08:35;;;;;;;13.50;9.02;;;11.20;99.90;;;;;;5070668;28;20016;-38
2023/11/23 09:11:01;;;;;;;11.55;8.77;;;11.20;99.90;;;;;;5081716;28;20032;-36
2023/11/23 09:13:27;;;;;;;13.50;8.88;;;11.30;99.90;;;;;;5068442;28;20089;-38
2023/11/23 09:15:53;;;;;;;13.43;8.40;;;11.30;99.90;;;;;;5081621;28;20113;-37
2023/11/23 09:18:21;;;;;;;18.75;10.30;;;11.40;99.90;;;;;;5067434;28;20051;-38
2023/11/23 09:20:47;;;;;;;14.38;8.70;;;11.40;99.90;;;;;;5080276;28;20487;-37
2023/11/23 09:23:14;;;;;;;14.57;10.90;;;11.40;99.90;;;;;;5069835;28;20634;-37
2023/11/23 09:25:39;;;;;;;12.15;8.65;;;11.40;99.90;;;;;;5079633;28;20028;-38
2023/11/23 09:28:05;;;;;;;12.93;9.73;;;11.50;99.90;;;;;;5076158;28;20073;-37
2023/11/23 09:30:30;;;;;;;12.00;8.35;;;11.50;99.90;;;;;;5065736;28;20021;-37
2023/11/23 09:32:56;;;;;;;9.88;8.05;;;11.50;99.90;;;;;;5066674;28;20032;-37
2023/11/23 09:35:22;;;;;;;12.15;7.65;;;11.60;99.90;;;;;;5068174;28;20035;-37
2023/11/23 09:37:48;;;;;;;10.27;7.90;;;11.60;99.90;;;;;;5066004;28;20028;-37
2023/11/23 09:40:18;;;;;;;8.88;6.90;;;11.60;99.90;;;;;;5072209;28;20024;-37
2023/11/23 09:42:45;;;;;;;10.30;7.55;;;11.70;99.90;;;;;;5078291;28;20032;-36
2023/11/23 09:45:14;;;;;;;10.93;7.93;;;11.80;99.90;;;;;;5059475;28;20498;-37
2023/11/23 09:47:41;;;;;;;10.27;6.53;;;11.80;99.90;;;;;;5079413;28;20071;-37
2023/11/23 09:50:09;;;;;;;8.82;6.75;;;11.80;99.90;;;;;;5069123;28;20400;-36
2023/11/23 09:52:36;;;;;;;9.20;7.05;;;11.90;99.90;;;;;;5080884;28;20035;-37
2023/11/23 09:55:04;;;;;;;8.65;6.97;;;11.80;99.90;;;;;;5069112;28;20028;-37
2023/11/23 09:57:30;;;;;;;13.30;7.93;;;11.90;99.90;;;;;;5082086;28;20131;-37
2023/11/23 09:59:56;;;;;;;12.18;8.63;;;11.90;99.90;;;;;;5076840;28;20107;-37
2023/11/23 10:02:23;;;;;;;10.75;8.07;;;11.90;99.90;;;;;;5059960;28;20439;-37
2023/11/23 10:04:49;;;;;;;10.68;7.60;;;11.90;99.90;;;;;;5073017;28;20024;-37
2023/11/23 10:07:20;;;;;;;10.82;7.93;;;11.90;99.90;;;;;;5061486;28;20021;-37
2023/11/23 10:09:48;;;;;;;9.13;7.38;;;11.90;99.90;;;;;;5071175;28;20032;-36
2023/11/23 10:12:14;;;;;;;9.00;7.18;;;11.90;99.90;;;;;;5063047;28;20123;-37
2023/11/23 10:14:40;;;;;;;8.00;6.93;;;12.00;99.90;;;;;;5069165;28;20032;-36
2023/11/23 10:17:09;;;;;;;10.23;7.40;;;12.00;99.90;;;;;;5064285;28;20120;-36
2023/11/23 10:19:35;;;;;;;10.75;7.30;;;12.00;99.90;;;;;;5067190;28;20139;-37
2023/11/23 10:22:03;;;;;;;7.18;6.30;;;12.10;99.90;;;;;;5065755;28;20073;-36
2023/11/23 10:24:29;;;;;;;10.77;7.13;;;12.10;99.90;;;;;;5063812;28;20742;-37
2023/11/23 10:26:55;;;;;;;8.25;6.10;;;12.20;99.90;;;;;;5068455;28;20025;-38
2023/11/23 10:29:26;;;;;;;8.73;6.65;;;12.20;99.90;;;;;;5062413;28;20035;-38
2023/11/23 10:31:52;;;;;;;10.30;6.05;;;12.20;99.90;;;;;;5069425;28;20132;-38
2023/11/23 10:34:18;;;;;;;9.15;5.38;;;12.20;99.90;;;;;;5061965;28;20034;-38
2023/11/23 10:36:47;;;;;;;7.25;4.60;;;12.20;99.90;;;;;;5071781;28;20082;-38
2023/11/23 10:39:16;;;;;;;8.73;5.18;;;12.20;99.90;;;;;;5061547;28;20025;-38
2023/11/23 10:41:44;;;;;;;8.10;4.65;;;12.30;99.90;;;;;;5071897;28;20025;-38
2023/11/23 10:44:12;;;;;;;8.45;4.50;;;12.30;99.90;;;;;;5060763;28;20067;-38
2023/11/23 10:46:38;;;;;;;5.35;3.80;;;12.30;99.90;;;;;;5072712;28;20055;-39
2023/11/23 10:49:08;;;;;;;6.60;4.35;;;12.40;99.90;;;;;;5059653;28;20016;-36
2023/11/23 10:51:34;;;;;;;6.57;4.15;;;12.40;99.90;;;;;;5073290;28;20087;-38
2023/11/23 10:54:01;;;;;;;7.07;3.70;;;12.40;99.90;;;;;;5079571;28;20032;-37
2023/11/23 10:56:31;;;;;;;5.80;4.10;;;12.40;99.90;;;;;;5080337;28;20049;-36
2023/11/23 10:59:05;;;;;;;6.05;4.20;;;12.40;99.90;;;;;;5059317;28;20036;-38
2023/11/23 11:01:32;;;;;;;9.95;4.72;;;12.50;99.90;;;;;;5075438;28;20131;-38
2023/11/23 11:03:59;;;;;;;8.63;4.65;;;12.50;99.90;;;;;;5079688;28;20960;-38
2023/11/23 11:06:25;;;;;;;6.10;4.70;;;12.50;99.90;;;;;;5079556;28;20052;-37
2023/11/23 11:08:51;;;;;;;5.63;4.00;;;12.50;99.90;;;;;;5080265;28;20913;-37
2023/11/23 11:11:23;;;;;;;7.78;4.55;;;12.50;99.90;;;;;;5081041;28;20082;-38
2023/11/23 11:13:57;;;;;;;6.40;3.92;;;12.50;99.90;;;;;;5079203;28;20028;-41
2023/11/23 11:16:33;;;;;;;5.90;3.35;;;12.60;99.90;;;;;;5080217;28;20089;-36
2023/11/23 11:19:05;;;;;;;6.65;3.45;;;12.60;99.90;;;;;;5079631;28;20024;-43
2023/11/23 11:21:48;;;;;;;4.53;3.03;;;12.60;99.90;;;;;;5079172;28;20028;-38
2023/11/23 11:24:21;;;;;;;8.77;3.60;;;12.70;99.90;;;;;;5079793;28;20023;-37
2023/11/23 11:26:47;;;;;;;8.20;3.38;;;12.70;99.90;;;;;;5081653;28;20024;-39
2023/11/23 11:29:14;;;;;;;5.82;3.38;;;12.70;99.90;;;;;;5083288;28;20024;-38
2023/11/23 11:31:41;;;;;;;5.75;3.50;;;12.70;99.90;;;;;;5082996;28;20024;-38
2023/11/23 11:34:31;;;;;;;5.43;3.35;;;12.70;99.90;;;;;;5082228;28;20051;-37
2023/11/23 11:36:59;;;;;;;4.20;2.90;;;12.70;99.90;;;;;;5083488;28;20107;-38
2023/11/23 11:39:32;;;;;;;5.20;3.13;;;12.70;99.90;;;;;;5084208;28;20032;-37
2023/11/23 11:41:59;;;;;;;6.90;3.45;;;12.80;99.90;;;;;;5082342;28;20035;-37
2023/11/23 11:44:29;;;;;;;6.30;3.40;;;12.80;99.90;;;;;;5084078;28;20502;-43
2023/11/23 11:46:57;;;;;;;7.10;3.35;;;12.70;99.90;;;;;;5083111;28;20074;-38
2023/11/23 11:49:30;;;;;;;6.90;3.70;;;12.70;99.90;;;;;;5083504;28;20042;-38
2023/11/23 11:51:56;;;;;;;7.55;3.38;;;12.80;99.90;;;;;;5083011;28;20135;-36
2023/11/23 11:54:23;;;;;;;5.75;2.85;;;12.70;99.90;;;;;;5083109;28;20593;-46
2023/11/23 11:56:50;;;;;;;5.90;3.20;;;12.70;99.90;;;;;;5082016;28;20055;-37
2023/11/23 11:59:20;;;;;;;6.28;2.90;;;12.80;99.90;;;;;;5083748;28;20024;-38
2023/11/23 12:01:47;;;;;;;5.68;2.72;;;12.80;99.90;;;;;;5082543;28;20028;-38
2023/11/23 12:04:18;;;;;;;5.70;2.75;;;12.80;99.90;;;;;;5083447;28;20016;-38
2023/11/23 12:06:45;;;;;;;9.63;3.83;;;12.90;99.90;;;;;;5083533;28;20048;-38
2023/11/23 12:09:19;;;;;;;6.82;2.83;;;12.90;99.90;;;;;;5082087;28;20032;-36
2023/11/23 12:11:45;;;;;;;5.43;2.50;;;12.80;99.90;;;;;;5084015;28;20028;-38
2023/11/23 12:14:11;;;;;;;6.30;2.70;;;12.90;99.90;;;;;;5083267;28;20039;-37
2023/11/23 12:16:38;;;;;;;6.28;2.30;;;12.90;99.90;;;;;;5082979;28;20028;-36
2023/11/23 12:19:21;;;;;;;4.70;2.60;;;12.90;99.90;;;;;;5082644;28;20024;-37
2023/11/23 12:21:56;;;;;;;;;;;13.00;99.90;;;;;;5062799;28;20778;-37
2023/11/23 12:24:25;;;;;;;5.10;2.50;;;13.00;99.90;;;;;;5078197;28;19914;-37
2023/11/23 12:26:55;;;;;;;5.78;2.13;;;13.00;99.90;;;;;;5083328;28;20034;-46
2023/11/23 12:29:30;;;;;;;5.40;2.00;;;13.00;99.90;;;;;;5082856;28;20027;-37
2023/11/23 12:32:02;;;;;;;6.22;2.38;;;13.00;99.90;;;;;;5081988;28;20036;-38
2023/11/23 12:34:29;;;;;;;4.88;1.98;;;13.00;99.90;;;;;;5083098;28;20024;-37
2023/11/23 12:36:57;;;;;;;4.88;2.13;;;13.10;99.90;;;;;;5081486;28;20020;-38